Terminal Aerodrome Forecast
Issued by NWS

Home | Current Version | Previous Version | Text Only | Print | Product List | Glossary On
Versions: 1 2 3 4 5 6 7 8 9 10 11 12 13 14 15 16
693
FTUS45 KRIW 230212 AAA
TAFCPR
TAF AMD
KCPR 230212Z 2302/2324 VRB06KT P6SM VCSH SCT050 BKN080
      TEMPO 2303/2305 VRB10G20KT -SHRA BKN050
     FM230900 01006KT P6SM VCFG BKN012
     FM231900 01012G20KT P6SM -SHRA SCT012 OVC020=

USA.gov is the U.S. government's official web portal to all federal, state and local government web resources and services.